Time;durP1;ratioP1;P1;durP2;ratioP2;P2;SDS_P1;SDS_P2;PMS_P1;PMS_P2;Temp;Humidity;BMP_temperature;BMP_pressure;BME280_temperature;BME280_humidity;BME280_pressure;Samples;Min_cycle;Max_cycle;Signal;HPM_P1;HPM_P2
2023/03/03 00:00:45;;;;;;;81.85;55.40;;;;;;;3.49;100.00;101510.78;5053059;28;20429;-78
2023/03/03 00:03:17;;;;;;;79.45;53.38;;;;;;;3.66;100.00;101504.78;5054170;28;20430;-78
2023/03/03 00:05:44;;;;;;;77.75;51.00;;;;;;;3.63;100.00;101505.06;5053783;28;20114;-78
2023/03/03 00:08:11;;;;;;;84.70;57.28;;;;;;;3.70;100.00;101500.91;5053884;28;20045;-78
2023/03/03 00:10:38;;;;;;;83.32;52.05;;;;;;;3.48;100.00;101502.06;5053784;28;20496;-78
2023/03/03 00:13:15;;;;;;;85.28;54.78;;;;;;;3.52;100.00;101498.19;5053534;28;20114;-78
2023/03/03 00:15:42;;;;;;;87.32;59.42;;;;;;;3.64;100.00;101486.53;5053514;28;20044;-78
2023/03/03 00:18:26;;;;;;;83.60;57.42;;;;;;;3.40;100.00;101481.75;5053471;28;20045;-78
2023/03/03 00:20:55;;;;;;;80.97;54.83;;;;;;;3.27;100.00;101483.84;5053566;28;20102;-78
2023/03/03 00:23:30;;;;;;;86.45;57.08;;;;;;;3.43;100.00;101478.00;5053695;28;20053;-78
2023/03/03 00:25:58;;;;;;;81.20;54.20;;;;;;;3.34;100.00;101478.84;5053441;28;20053;-78
2023/03/03 00:28:28;;;;;;;92.88;60.45;;;;;;;3.30;100.00;101477.47;5053102;28;20136;-78
2023/03/03 00:30:57;;;;;;;89.32;61.10;;;;;;;3.50;100.00;101467.75;5053620;28;20473;-78
2023/03/03 00:33:31;;;;;;;94.22;60.60;;;;;;;3.65;100.00;101468.97;5053230;28;20045;-78
2023/03/03 00:36:10;;;;;;;87.78;60.75;;;;;;;3.54;100.00;101462.09;5052992;28;20136;-78
2023/03/03 00:38:36;;;;;;;100.50;69.22;;;;;;;3.50;100.00;101463.34;5053156;28;20425;-78
2023/03/03 00:41:11;;;;;;;97.22;77.05;;;;;;;3.46;100.00;101454.09;5053104;28;20114;-78
2023/03/03 00:43:39;;;;;;;94.95;68.05;;;;;;;3.36;100.00;101448.88;5052864;28;20045;-78
2023/03/03 00:46:08;;;;;;;92.03;64.95;;;;;;;3.21;100.00;101450.28;5053090;28;20071;-78
2023/03/03 00:48:42;;;;;;;93.50;58.13;;;;;;;3.22;100.00;101450.13;5053100;28;20048;-78
2023/03/03 00:51:23;;;;;;;91.40;61.25;;;;;;;3.41;100.00;101448.44;5053106;28;20045;-78
2023/03/03 00:53:50;;;;;;;102.90;71.75;;;;;;;3.49;100.00;101445.09;5052744;28;20495;-78
2023/03/03 00:56:17;;;;;;;100.78;69.43;;;;;;;3.50;100.00;101442.31;5052830;28;20044;-78
2023/03/03 00:58:46;;;;;;;95.53;62.10;;;;;;;3.52;100.00;101443.03;5052809;28;20049;-78
2023/03/03 01:01:13;;;;;;;102.63;76.05;;;;;;;3.44;100.00;101442.88;5052323;28;20084;-78
2023/03/03 01:03:40;;;;;;;89.13;62.38;;;;;;;3.08;100.00;101447.09;5052797;28;20126;-78
2023/03/03 01:06:07;;;;;;;92.68;68.82;;;;;;;3.31;100.00;101443.19;5052841;28;20053;-78
2023/03/03 01:08:34;;;;;;;97.38;71.93;;;;;;;3.26;100.00;101434.91;5053015;28;20118;-78
2023/03/03 01:11:07;;;;;;;99.35;69.47;;;;;;;3.16;100.00;101434.91;5052186;28;20506;-78
2023/03/03 01:13:35;;;;;;;99.22;66.82;;;;;;;3.49;100.00;101432.78;5052647;28;20064;-78
2023/03/03 01:16:04;;;;;;;99.13;67.93;;;;;;;3.58;100.00;101431.13;5052427;28;20048;-78
2023/03/03 01:18:31;;;;;;;101.60;78.88;;;;;;;3.47;100.00;101431.28;5052679;28;20106;-78
2023/03/03 01:20:58;;;;;;;108.32;76.70;;;;;;;3.57;100.00;101422.41;5052533;28;20045;-78
2023/03/03 01:23:25;;;;;;;98.43;71.00;;;;;;;3.61;100.00;101422.94;5052634;28;20048;-78
2023/03/03 01:25:52;;;;;;;102.88;68.90;;;;;;;3.50;100.00;101425.75;5052352;28;20094;-78
2023/03/03 01:28:19;;;;;;;103.47;72.70;;;;;;;3.53;100.00;101425.47;5052415;28;20049;-78
2023/03/03 01:30:45;;;;;;;98.32;72.63;;;;;;;3.59;100.00;101425.72;5052670;28;20106;-78
2023/03/03 01:33:13;;;;;;;107.50;76.05;;;;;;;3.60;100.00;101422.13;5052546;28;20103;-78
2023/03/03 01:35:44;;;;;;;103.65;76.50;;;;;;;3.58;100.00;101412.72;5052881;28;20048;-78
2023/03/03 01:38:11;;;;;;;102.32;70.80;;;;;;;3.49;100.00;101408.34;5052671;28;20049;-78
2023/03/03 01:40:38;;;;;;;105.80;70.53;;;;;;;3.56;100.00;101414.66;5052883;28;20044;-78
2023/03/03 01:43:05;;;;;;;106.70;80.70;;;;;;;3.53;100.00;101413.16;5052623;28;20057;-78
2023/03/03 01:46:10;;;;;;;109.30;79.15;;;;;;;3.56;100.00;101402.34;5052573;28;20056;-78
2023/03/03 01:48:40;;;;;;;105.85;75.72;;;;;;;3.53;100.00;101407.06;5051917;28;20045;-78
2023/03/03 01:51:15;;;;;;;102.60;72.20;;;;;;;3.52;100.00;101408.88;5052137;28;20107;-78
2023/03/03 01:53:44;;;;;;;103.35;71.15;;;;;;;3.48;100.00;101411.91;5052416;28;20106;-78
2023/03/03 01:56:11;;;;;;;104.82;74.28;;;;;;;3.36;100.00;101400.75;5052377;28;20114;-78
2023/03/03 01:58:41;;;;;;;112.07;84.70;;;;;;;3.43;100.00;101405.28;5051947;28;20122;-78
2023/03/03 02:01:12;;;;;;;105.43;73.18;;;;;;;3.54;100.00;101401.69;5052048;28;20041;-78
2023/03/03 02:03:41;;;;;;;109.32;72.80;;;;;;;3.56;100.00;101399.72;5052246;28;20143;-78
2023/03/03 02:06:11;;;;;;;103.70;73.80;;;;;;;3.52;100.00;101395.75;5052067;28;20049;-78
2023/03/03 02:08:46;;;;;;;106.07;77.40;;;;;;;3.47;100.00;101397.13;5052386;28;20045;-78
2023/03/03 02:11:14;;;;;;;101.85;72.28;;;;;;;3.24;100.00;101392.22;5052147;28;20049;-78
2023/03/03 02:13:41;;;;;;;101.03;67.90;;;;;;;3.32;100.00;101386.25;5051950;28;20111;-78
2023/03/03 02:16:08;;;;;;;109.60;75.80;;;;;;;3.42;100.00;101393.16;5052543;28;20434;-78
2023/03/03 02:18:35;;;;;;;111.82;76.65;;;;;;;3.40;100.00;101383.75;5052088;28;20107;-78
2023/03/03 02:21:07;;;;;;;105.82;73.30;;;;;;;3.48;100.00;101388.28;5052026;28;20114;-78
2023/03/03 02:23:39;;;;;;;107.40;71.53;;;;;;;3.38;100.00;101377.81;5053412;28;20053;-78
2023/03/03 02:26:12;;;;;;;114.93;73.95;;;;;;;3.36;100.00;101385.00;5055796;28;20049;-78
2023/03/03 02:28:40;;;;;;;116.65;79.60;;;;;;;3.36;100.00;101383.22;5055984;28;20060;-78
2023/03/03 02:31:11;;;;;;;105.13;71.30;;;;;;;3.18;100.00;101377.88;5055783;28;20464;-78
2023/03/03 02:33:39;;;;;;;105.03;71.90;;;;;;;3.30;100.00;101382.94;5055470;28;20106;-78
2023/03/03 02:36:06;;;;;;;113.35;73.45;;;;;;;3.39;100.00;101392.59;5055469;28;20472;-78
2023/03/03 02:38:37;;;;;;;117.22;82.10;;;;;;;3.36;100.00;101391.09;5055396;28;20534;-78
2023/03/03 02:41:14;;;;;;;112.35;83.57;;;;;;;3.38;100.00;101391.75;5055421;28;20140;-78
2023/03/03 02:43:46;;;;;;;110.80;77.55;;;;;;;3.39;100.00;101385.56;5055040;28;20106;-78
2023/03/03 02:46:13;;;;;;;114.13;72.45;;;;;;;3.26;100.00;101384.19;5055385;28;20045;-78
2023/03/03 02:48:40;;;;;;;105.75;71.88;;;;;;;3.27;100.00;101388.47;5055095;28;20095;-78
2023/03/03 02:51:07;;;;;;;114.43;75.53;;;;;;;3.10;100.00;101384.78;5055268;28;20052;-78
2023/03/03 02:53:34;;;;;;;114.22;75.22;;;;;;;3.20;100.00;101383.78;5055344;28;20056;-78
2023/03/03 02:56:00;;;;;;;108.75;72.93;;;;;;;3.23;100.00;101380.06;5054776;28;20049;-78
2023/03/03 02:58:28;;;;;;;108.93;70.38;;;;;;;3.21;100.00;101382.84;5055179;28;20541;-78
2023/03/03 03:00:55;;;;;;;116.30;79.60;;;;;;;3.26;100.00;101376.31;5054881;28;20052;-78
2023/03/03 03:03:22;;;;;;;108.85;78.82;;;;;;;3.29;100.00;101381.28;5054761;28;20494;-78
2023/03/03 03:05:49;;;;;;;112.38;81.22;;;;;;;3.30;100.00;101385.56;5054754;28;20102;-78
2023/03/03 03:08:16;;;;;;;104.70;76.25;;;;;;;3.22;100.00;101384.47;5054780;28;20045;-78
2023/03/03 03:10:43;;;;;;;113.68;86.57;;;;;;;3.00;100.00;101376.09;5054408;28;20519;-78
2023/03/03 03:13:09;;;;;;;109.68;75.88;;;;;;;3.19;100.00;101376.88;5054787;28;20094;-78
2023/03/03 03:15:37;;;;;;;107.82;79.75;;;;;;;3.26;100.00;101371.88;5054821;28;20489;-78
2023/03/03 03:18:05;;;;;;;109.63;82.55;;;;;;;3.32;100.00;101368.69;5054825;28;20052;-78
2023/03/03 03:20:32;;;;;;;111.68;86.25;;;;;;;3.37;100.00;101368.28;5054643;28;20059;-78
2023/03/03 03:22:58;;;;;;;118.38;83.05;;;;;;;3.08;100.00;101363.91;5054788;28;20049;-78
2023/03/03 03:25:25;;;;;;;110.30;81.78;;;;;;;3.05;100.00;101366.00;5054190;28;20107;-78
2023/03/03 03:27:52;;;;;;;116.57;77.75;;;;;;;3.04;100.00;101362.53;5054446;28;20496;-78
2023/03/03 03:30:19;;;;;;;107.47;74.10;;;;;;;3.15;100.00;101367.66;5054677;28;20056;-78
2023/03/03 03:32:48;;;;;;;123.43;85.07;;;;;;;3.34;100.00;101365.94;5054204;28;20491;-78
2023/03/03 03:35:16;;;;;;;121.97;85.07;;;;;;;3.28;100.00;101359.47;5054431;28;20061;-78
2023/03/03 03:37:43;;;;;;;121.25;83.07;;;;;;;3.25;100.00;101357.13;5054659;28;20052;-78
2023/03/03 03:40:11;;;;;;;106.75;71.50;;;;;;;3.34;100.00;101350.19;5054221;28;20049;-78
2023/03/03 03:42:40;;;;;;;106.97;76.20;;;;;;;3.32;100.00;101350.31;5054270;28;20473;-78
2023/03/03 03:45:07;;;;;;;126.40;82.47;;;;;;;3.32;100.00;101352.94;5053935;28;20048;-78
2023/03/03 03:47:34;;;;;;;119.30;78.95;;;;;;;3.35;100.00;101367.59;5054084;28;20446;-78
2023/03/03 03:50:02;;;;;;;113.00;72.35;;;;;;;3.30;100.00;101360.16;5053835;28;20499;-78
2023/03/03 03:52:29;;;;;;;112.82;75.85;;;;;;;3.16;100.00;101366.66;5053659;28;20053;-78
2023/03/03 03:54:56;;;;;;;114.47;79.38;;;;;;;3.16;100.00;101361.41;5054117;28;20053;-78
2023/03/03 03:57:22;;;;;;;119.60;81.28;;;;;;;3.29;100.00;101350.59;5051045;28;20138;-78
2023/03/03 03:59:49;;;;;;;123.63;78.65;;;;;;;3.32;100.00;101350.31;5033897;28;20045;-78
2023/03/03 04:02:16;;;;;;;163.30;94.65;;;;;;;3.22;100.00;101352.16;5033485;28;20057;-78
2023/03/03 04:04:43;;;;;;;149.75;88.78;;;;;;;3.04;100.00;101348.59;5033868;28;20095;-78
2023/03/03 04:07:11;;;;;;;143.02;92.20;;;;;;;3.17;100.00;101357.00;5034023;28;20061;-78
2023/03/03 04:09:38;;;;;;;150.73;92.88;;;;;;;3.24;100.00;101354.63;5034176;28;20115;-78
2023/03/03 04:12:05;;;;;;;160.07;92.00;;;;;;;3.36;100.00;101353.47;5033877;28;20127;-78
2023/03/03 04:14:32;;;;;;;155.18;92.57;;;;;;;3.22;100.00;101349.53;5033529;28;20042;-78
2023/03/03 04:16:59;;;;;;;144.48;90.65;;;;;;;3.30;100.00;101346.16;5033724;28;20123;-78
2023/03/03 04:19:25;;;;;;;137.00;88.10;;;;;;;3.31;100.00;101345.22;5033636;28;20045;-78
2023/03/03 04:21:52;;;;;;;147.73;89.20;;;;;;;3.32;100.00;101347.69;5033636;28;20104;-78
2023/03/03 04:24:20;;;;;;;164.43;102.82;;;;;;;3.24;100.00;101352.84;5033517;28;20057;-78
2023/03/03 04:26:47;;;;;;;143.77;86.05;;;;;;;3.24;100.00;101350.22;5033372;28;20103;-78
2023/03/03 04:29:13;;;;;;;147.38;92.45;;;;;;;3.31;100.00;101353.09;5033266;28;20511;-78
2023/03/03 04:31:40;;;;;;;154.88;93.70;;;;;;;3.30;100.00;101359.28;5033190;28;20046;-78
2023/03/03 04:34:07;;;;;;;177.32;108.45;;;;;;;3.28;100.00;101358.63;5033273;28;20045;-78
2023/03/03 04:36:34;;;;;;;157.07;97.07;;;;;;;3.36;100.00;101353.47;5033485;28;20208;-78
2023/03/03 04:39:00;;;;;;;209.57;122.03;;;;;;;3.38;100.00;101354.16;5032962;28;20592;-78
2023/03/03 04:41:28;;;;;;;181.90;106.85;;;;;;;3.40;100.00;101358.31;5033189;28;20114;-78
2023/03/03 04:43:55;;;;;;;145.30;86.28;;;;;;;3.39;100.00;101347.97;5033170;28;20053;-78
2023/03/03 04:46:22;;;;;;;149.68;88.30;;;;;;;3.32;100.00;101354.75;5032813;28;20049;-78
2023/03/03 04:48:48;;;;;;;149.20;93.93;;;;;;;3.36;100.00;101354.31;5033147;28;20477;-78
2023/03/03 04:51:15;;;;;;;151.25;88.18;;;;;;;3.37;100.00;101352.53;5033275;28;20119;-78
2023/03/03 04:53:42;;;;;;;153.55;95.90;;;;;;;3.39;100.00;101350.59;5032851;28;20088;-78
2023/03/03 04:56:09;;;;;;;154.25;96.55;;;;;;;3.39;100.00;101343.53;5033252;28;20114;-78
2023/03/03 04:58:37;;;;;;;152.50;94.88;;;;;;;3.44;100.00;101351.78;5032869;28;20053;-78
2023/03/03 05:01:03;;;;;;;141.77;88.68;;;;;;;3.27;100.00;101357.81;5032871;28;20481;-78
2023/03/03 05:03:30;;;;;;;144.57;85.68;;;;;;;3.25;100.00;101353.66;5032777;28;20115;-78
2023/03/03 05:05:57;;;;;;;137.95;82.88;;;;;;;3.31;100.00;101353.91;5032707;28;20491;-78
2023/03/03 05:08:24;;;;;;;130.38;78.18;;;;;;;3.43;100.00;101346.69;5033297;28;20049;-78
2023/03/03 05:10:52;;;;;;;142.00;81.93;;;;;;;3.39;100.00;101353.22;5033091;28;20049;-78
2023/03/03 05:13:19;;;;;;;143.32;87.53;;;;;;;3.43;100.00;101346.69;5033026;28;20059;-78
2023/03/03 05:15:51;;;;;;;142.18;88.47;;;;;;;3.49;100.00;101343.50;5032462;28;20127;-78
2023/03/03 05:18:18;;;;;;;136.95;85.07;;;;;;;3.52;100.00;101348.47;5033232;28;20049;-78
2023/03/03 05:20:45;;;;;;;144.90;90.82;;;;;;;3.46;100.00;101348.22;5032524;28;20060;-78
2023/03/03 05:23:12;;;;;;;146.43;88.97;;;;;;;3.48;100.00;101349.72;5032736;28;20111;-78
2023/03/03 05:25:40;;;;;;;123.97;76.30;;;;;;;3.48;100.00;101347.09;5032877;28;20053;-78
2023/03/03 05:28:07;;;;;;;148.00;94.50;;;;;;;3.53;100.00;101351.91;5032308;28;20075;-78
2023/03/03 05:30:33;;;;;;;137.13;86.10;;;;;;;3.51;100.00;101353.84;5032412;28;20491;-78
2023/03/03 05:33:01;;;;;;;128.20;78.28;;;;;;;3.57;100.00;101346.25;5032614;28;20053;-78
2023/03/03 05:35:28;;;;;;;117.93;74.55;;;;;;;3.56;100.00;101354.25;5032302;28;20050;-78
2023/03/03 05:37:56;;;;;;;106.47;69.45;;;;;;;3.34;100.00;101353.63;5032774;28;20053;-78
2023/03/03 05:40:24;;;;;;;113.07;71.97;;;;;;;3.33;100.00;101351.13;5032125;28;20594;-78
2023/03/03 05:42:51;;;;;;;121.97;75.18;;;;;;;3.47;100.00;101358.56;5032588;28;20068;-78
2023/03/03 05:45:20;;;;;;;121.18;76.07;;;;;;;3.41;100.00;101348.63;5032571;28;20053;-78
2023/03/03 05:47:46;;;;;;;114.65;70.03;;;;;;;3.40;100.00;101360.13;5032252;28;20510;-78
2023/03/03 05:50:16;;;;;;;107.72;70.07;;;;;;;3.56;100.00;101357.69;5032695;28;20105;-78
2023/03/03 05:52:43;;;;;;;107.45;71.20;;;;;;;3.48;100.00;101365.50;5032584;28;20461;-78
2023/03/03 05:55:11;;;;;;;94.95;61.70;;;;;;;3.51;100.00;101367.81;5032469;28;20507;-78
2023/03/03 05:57:37;;;;;;;91.85;60.97;;;;;;;3.76;100.00;101353.19;5032332;28;20400;-78
2023/03/03 06:00:07;;;;;;;95.97;62.40;;;;;;;3.93;100.00;101367.34;5036209;28;20045;-78
2023/03/03 06:02:33;;;;;;;97.85;68.07;;;;;;;3.87;100.00;101365.28;5036127;28;20049;-78
2023/03/03 06:05:00;;;;;;;88.22;63.40;;;;;;;3.89;100.00;101368.63;5036289;28;20107;-78
2023/03/03 06:07:28;;;;;;;90.47;64.93;;;;;;;3.84;100.00;101369.06;5036151;28;20103;-78
2023/03/03 06:09:55;;;;;;;90.32;64.50;;;;;;;3.96;100.00;101371.47;5036408;28;20050;-78
2023/03/03 06:12:22;;;;;;;91.30;61.83;;;;;;;3.98;100.00;101373.00;5035661;28;20049;-78
2023/03/03 06:14:48;;;;;;;95.72;62.78;;;;;;;4.06;100.00;101373.09;5035975;28;20052;-78
2023/03/03 06:17:15;;;;;;;101.10;66.30;;;;;;;4.06;100.00;101364.38;5035775;28;20220;-78
2023/03/03 06:19:42;;;;;;;109.88;70.90;;;;;;;4.17;100.00;101366.78;5036081;28;20046;-78
2023/03/03 06:22:09;;;;;;;99.00;64.53;;;;;;;4.17;100.00;101372.03;5035562;28;20107;-78
2023/03/03 06:24:37;;;;;;;89.75;61.00;;;;;;;4.27;100.00;101367.56;5035719;28;20080;-78
2023/03/03 06:27:04;;;;;;;103.22;70.63;;;;;;;4.14;100.00;101369.72;5035809;28;20053;-78
2023/03/03 06:29:31;;;;;;;100.60;68.15;;;;;;;4.19;100.00;101372.72;5036082;28;20053;-78
2023/03/03 06:31:58;;;;;;;106.68;69.50;;;;;;;4.19;100.00;101370.09;5035502;28;20049;-78
2023/03/03 06:34:24;;;;;;;101.97;65.13;;;;;;;4.30;100.00;101369.09;5035995;28;20049;-78
2023/03/03 06:36:51;;;;;;;96.40;65.40;;;;;;;4.20;100.00;101373.56;5035710;28;20049;-78
2023/03/03 06:39:18;;;;;;;90.95;63.53;;;;;;;4.27;100.00;101372.84;5035571;28;20045;-78
2023/03/03 06:41:46;;;;;;;93.40;66.05;;;;;;;4.29;100.00;101377.94;5036048;28;20549;-78
2023/03/03 06:44:13;;;;;;;92.20;62.35;;;;;;;4.38;100.00;101378.84;5035799;28;20054;-78
2023/03/03 06:46:39;;;;;;;88.97;59.65;;;;;;;4.32;100.00;101372.38;5035186;28;20569;-78
2023/03/03 06:49:06;;;;;;;84.43;58.35;;;;;;;4.29;100.00;101376.13;5035644;28;20053;-78
2023/03/03 06:51:35;;;;;;;87.15;60.08;;;;;;;4.35;100.00;101375.53;5035294;28;20050;-78
2023/03/03 06:54:06;;;;;;;86.93;60.00;;;;;;;4.61;100.00;101369.53;5035572;28;20119;-78
2023/03/03 06:56:35;;;;;;;87.00;62.03;;;;;;;4.55;100.00;101376.22;5035283;28;20049;-78
2023/03/03 06:59:10;;;;;;;94.70;64.93;;;;;;;4.49;100.00;101376.81;5035260;28;20122;-78
2023/03/03 07:01:37;;;;;;;90.97;63.83;;;;;;;4.47;100.00;101373.50;5034960;28;20053;-78
2023/03/03 07:04:13;;;;;;;85.95;58.85;;;;;;;4.73;100.00;101375.41;5035447;28;20053;-78
2023/03/03 07:06:40;;;;;;;90.07;60.80;;;;;;;4.70;100.00;101368.63;5035397;28;20057;-78
2023/03/03 07:09:22;;;;;;;85.50;58.17;;;;;;;4.91;100.00;101365.66;5034735;28;20084;-78
2023/03/03 07:11:50;;;;;;;80.50;56.67;;;;;;;4.93;100.00;101365.50;5034997;28;20103;-78
2023/03/03 07:14:20;;;;;;;83.25;58.30;;;;;;;4.76;100.00;101365.38;5035058;28;20057;-78
2023/03/03 07:16:47;;;;;;;85.78;58.65;;;;;;;4.74;100.00;101364.69;5035049;28;20107;-78
2023/03/03 07:19:21;;;;;;;87.90;60.85;;;;;;;5.06;100.00;101368.59;5034998;28;20046;-78
2023/03/03 07:21:48;;;;;;;86.75;62.22;;;;;;;5.10;100.00;101372.56;5034981;28;20552;-78
2023/03/03 07:24:25;;;;;;;82.68;59.10;;;;;;;4.88;100.00;101358.09;5035220;28;20046;-78
2023/03/03 07:26:52;;;;;;;78.68;57.05;;;;;;;4.72;100.00;101365.81;5034981;28;20046;-78
2023/03/03 07:29:24;;;;;;;118.75;75.15;;;;;;;5.26;100.00;101356.03;5034727;28;20071;-78
2023/03/03 07:31:52;;;;;;;97.38;68.28;;;;;;;5.28;100.00;101359.34;5035116;28;20067;-78
2023/03/03 07:34:21;;;;;;;114.57;83.30;;;;;;;5.41;100.00;101345.75;5035120;28;20053;-78
2023/03/03 07:36:50;;;;;;;91.78;61.00;;;;;;;5.28;100.00;101346.16;5034691;28;20050;-78
2023/03/03 07:39:26;;;;;;;96.30;64.90;;;;;;;5.27;100.00;101349.78;5034850;28;20049;-78
2023/03/03 07:41:53;;;;;;;82.80;59.45;;;;;;;5.38;100.00;101338.97;5034365;28;20111;-78
2023/03/03 07:44:28;;;;;;;89.82;60.85;;;;;;;5.51;100.00;101349.09;5034857;28;20053;-78
2023/03/03 07:46:54;;;;;;;91.07;63.15;;;;;;;5.46;100.00;101346.94;5034670;28;20045;-78
2023/03/03 07:49:23;;;;;;;87.45;59.67;;;;;;;5.25;100.00;101349.94;5034754;28;20049;-78
2023/03/03 07:51:54;;;;;;;99.38;66.00;;;;;;;5.26;100.00;101338.44;5034596;28;20049;-78
2023/03/03 07:54:31;;;;;;;100.45;66.85;;;;;;;5.28;100.00;101346.16;5034908;28;20057;-78
2023/03/03 07:57:06;;;;;;;90.28;61.33;;;;;;;5.31;100.00;101345.84;5034623;28;20053;-78
2023/03/03 07:59:36;;;;;;;92.45;56.83;;;;;;;5.26;100.00;101341.06;5034725;28;20049;-78
2023/03/03 08:02:16;;;;;;;89.53;59.50;;;;;;;5.28;100.00;101346.16;5034153;28;20104;-78
2023/03/03 08:04:49;;;;;;;97.28;60.30;;;;;;;5.41;100.00;101341.28;5034525;28;20046;-78
2023/03/03 08:07:18;;;;;;;71.72;44.45;;;;;;;5.27;100.00;101339.25;5034660;28;20049;-78
2023/03/03 08:09:49;;;;;;;81.28;50.13;;;;;;;5.16;100.00;101345.59;5034476;28;20111;-78
2023/03/03 08:12:37;;;;;;;84.53;55.73;;;;;;;5.73;100.00;101340.63;5034592;28;20430;-78
2023/03/03 08:15:24;;;;;;;73.45;52.35;;;;;;;5.72;100.00;101338.16;5034057;28;20053;-78
2023/03/03 08:17:53;;;;;;;85.35;60.42;;;;;;;5.32;100.00;101338.78;5034226;28;20053;-78
2023/03/03 08:20:45;;;;;;;86.65;62.30;;;;;;;4.91;100.00;101339.34;5033140;28;20049;-78
2023/03/03 08:23:13;;;;;;;79.63;58.28;;;;;;;5.23;100.00;101338.75;5033508;28;20050;-78
2023/03/03 08:25:41;;;;;;;84.05;52.83;;;;;;;5.54;100.00;101326.84;5034013;28;20041;-78
2023/03/03 08:28:08;;;;;;;85.07;58.03;;;;;;;5.46;100.00;101331.13;5033738;28;20064;-78
2023/03/03 08:30:36;;;;;;;83.18;58.63;;;;;;;5.67;100.00;101327.25;5034271;28;20053;-78
2023/03/03 08:33:03;;;;;;;88.97;56.00;;;;;;;5.92;100.00;101322.88;5034119;28;20049;-78
2023/03/03 08:35:30;;;;;;;71.50;48.58;;;;;;;5.93;100.00;101327.19;5034291;28;20107;-78
2023/03/03 08:37:56;;;;;;;82.60;59.63;;;;;;;6.05;100.00;101315.38;5033816;28;20477;-78
2023/03/03 08:40:23;;;;;;;92.60;61.42;;;;;;;6.06;100.00;101321.50;5033741;28;20049;-78
2023/03/03 08:42:50;;;;;;;96.22;63.85;;;;;;;6.94;100.00;101318.22;5033731;28;20481;-78
2023/03/03 08:45:17;;;;;;;95.20;63.75;;;;;;;6.47;100.00;101318.88;5033801;28;20111;-78
2023/03/03 08:47:45;;;;;;;87.05;61.72;;;;;;;7.26;100.00;101315.53;5034750;28;20464;-78
2023/03/03 08:50:12;;;;;;;93.40;61.33;;;;;;;7.22;100.00;101311.56;5034058;28;20095;-78
2023/03/03 08:52:39;;;;;;;83.65;58.47;;;;;;;7.03;100.00;101317.22;5034634;28;20081;-78
2023/03/03 08:55:07;;;;;;;99.28;64.80;;;;;;;6.54;100.00;101312.81;5033691;28;20499;-78
2023/03/03 08:57:34;;;;;;;82.30;56.00;;;;;;;6.88;100.00;101299.41;5033447;28;20045;-78
2023/03/03 09:00:00;;;;;;;85.63;60.40;;;;;;;7.68;100.00;101293.22;5033820;28;20106;-78
2023/03/03 09:02:27;;;;;;;99.82;62.38;;;;;;;7.96;100.00;101293.56;5034330;28;20549;-78
2023/03/03 09:04:55;;;;;;;104.03;68.28;;;;;;;8.08;100.00;101299.28;5034911;28;20477;-78
2023/03/03 09:07:22;;;;;;;83.00;58.65;;;;;;;7.40;100.00;101292.84;5034071;28;20552;-78
2023/03/03 09:09:49;;;;;;;85.43;68.30;;;;;;;8.07;100.00;101289.69;5034571;28;20049;-78
2023/03/03 09:12:18;;;;;;;91.13;63.30;;;;;;;7.06;100.00;101290.47;5033857;28;20054;-78
2023/03/03 09:14:45;;;;;;;96.38;60.22;;;;;;;8.36;100.00;101282.88;5034373;28;20057;-78
2023/03/03 09:17:33;;;;;;;91.10;61.97;;;;;;;8.12;100.00;101286.53;5034867;28;20100;-78
2023/03/03 09:20:20;;;;;;;79.93;59.40;;;;;;;7.74;100.00;101279.28;5030249;28;20115;-78
2023/03/03 09:22:47;;;;;;;96.75;63.05;;;;;;;6.67;100.00;101285.09;5033726;28;20053;-78
2023/03/03 09:25:22;;;;;;;92.78;62.05;;;;;;;7.45;100.00;101281.78;5033654;28;20526;-78
2023/03/03 09:27:48;;;;;;;105.47;70.80;;;;;;;7.51;100.00;101281.91;5033198;28;20085;-78
2023/03/03 09:30:30;;;;;;;99.65;73.25;;;;;;;7.79;100.00;101282.25;5033476;28;20104;-78
2023/03/03 09:32:57;;;;;;;103.40;71.88;;;;;;;7.97;100.00;101283.81;5036529;28;20095;-78
2023/03/03 09:35:39;;;;;;;100.82;68.38;;;;;;;7.78;100.00;101279.78;5039492;28;20100;-78
2023/03/03 09:38:20;;;;;;;97.55;73.13;;;;;;;7.73;100.00;101280.28;5038363;28;20056;-78
2023/03/03 09:40:58;;;;;;;93.75;60.72;;;;;;;7.63;100.00;101282.34;5057714;28;20055;-78
2023/03/03 09:43:37;;;;;;;92.38;68.10;;;;;;;7.37;100.00;101285.25;5057865;28;20053;-78
2023/03/03 09:46:13;;;;;;;95.57;69.95;;;;;;;7.57;100.00;101283.84;5057935;28;20049;-78
2023/03/03 09:48:51;;;;;;;107.25;63.63;;;;;;;7.61;100.00;101286.97;5057761;28;20102;-78
2023/03/03 09:51:59;;;;;;;107.78;67.38;;;;;;;7.06;100.00;101293.13;5057510;28;20106;-78
2023/03/03 09:54:49;;;;;;;102.07;67.93;;;;;;;7.22;100.00;101284.31;5048497;28;20527;-78
2023/03/03 09:57:20;;;;;;;95.40;63.17;;;;;;;7.06;100.00;101285.19;5058041;28;20102;-78
2023/03/03 10:00:09;;;;;;;90.10;60.58;;;;;;;7.06;100.00;101293.94;5056874;28;20041;-78
2023/03/03 10:02:53;;;;;;;67.45;47.17;;;;;;;7.16;100.00;101288.44;5056831;28;20107;-78
2023/03/03 10:05:40;;;;;;;74.35;51.38;;;;;;;7.00;100.00;101289.31;5057059;28;20041;-78
2023/03/03 10:08:25;;;;;;;59.83;42.28;;;;;;;7.11;100.00;101285.50;5057315;28;20052;-78
2023/03/03 10:11:11;;;;;;;58.72;44.55;;;;;;;7.44;100.00;101277.47;5057444;28;20658;-78
2023/03/03 10:13:56;;;;;;;71.78;50.97;;;;;;;6.97;100.00;101279.09;5058161;28;20514;-78
2023/03/03 10:16:55;;;;;;;75.93;53.03;;;;;;;6.63;100.00;101268.75;5056547;28;20045;-78
2023/03/03 10:19:36;;;;;;;76.07;55.15;;;;;;;6.59;100.00;101278.81;5051302;28;20053;-78
2023/03/03 10:22:18;;;;;;;72.80;50.25;;;;;;;6.67;100.00;101269.25;5056414;28;20048;-78
2023/03/03 10:24:56;;;;;;;64.05;49.25;;;;;;;7.23;100.00;101248.97;5057265;28;20053;-78
2023/03/03 10:27:40;;;;;;;72.10;52.42;;;;;;;7.11;100.00;101251.16;5057284;28;20114;-78
2023/03/03 10:30:13;;;;;;;83.07;56.67;;;;;;;7.65;100.00;101248.59;5057145;28;20115;-78
2023/03/03 10:32:48;;;;;;;75.22;54.35;;;;;;;6.77;100.00;101244.31;5057101;28;20048;-78
2023/03/03 10:35:25;;;;;;;77.35;52.05;;;;;;;7.21;100.00;101235.94;5056484;28;20053;-78
2023/03/03 10:38:13;;;;;;;81.65;55.72;;;;;;;6.59;100.00;101236.56;5056420;28;20114;-78
2023/03/03 10:40:49;;;;;;;78.45;53.60;;;;;;;6.59;100.00;101233.13;5056115;28;20477;-78
2023/03/03 10:43:44;;;;;;;74.43;51.40;;;;;;;6.83;100.00;101219.84;5055420;28;20469;-78
2023/03/03 10:46:27;;;;;;;61.22;46.38;;;;;;;6.83;100.00;101219.84;5030640;28;20060;-78
2023/03/03 10:49:12;;;;;;;75.13;56.05;;;;;;;7.00;100.00;101211.91;5056145;28;20114;-78
2023/03/03 10:51:53;;;;;;;85.80;54.65;;;;;;;6.92;100.00;101210.09;5056167;28;20511;-78
2023/03/03 10:54:32;;;;;;;89.85;58.22;;;;;;;6.98;100.00;101198.84;5056114;28;20106;-78
2023/03/03 10:57:04;;;;;;;81.03;52.65;;;;;;;6.93;100.00;101190.66;5056463;28;20110;-78
2023/03/03 10:59:48;;;;;;;88.57;59.90;;;;;;;7.25;100.00;101184.38;5056276;28;20053;-78
2023/03/03 11:02:21;;;;;;;93.80;58.80;;;;;;;7.00;100.00;101186.31;5055796;28;20128;-78
2023/03/03 11:05:16;;;;;;;82.28;59.10;;;;;;;7.38;100.00;101178.53;5056182;28;20585;-78
2023/03/03 11:07:46;;;;;;;76.55;53.03;;;;;;;7.43;100.00;101178.03;5053951;28;20572;-78
2023/03/03 11:10:30;;;;;;;78.68;55.35;;;;;;;7.39;100.00;101179.38;5036466;28;20053;-78
2023/03/03 11:13:10;;;;;;;91.53;57.63;;;;;;;7.52;100.00;101180.44;5036402;28;20404;-78
2023/03/03 11:15:52;;;;;;;78.03;51.15;;;;;;;7.15;100.00;101177.69;5035772;28;20107;-78
2023/03/03 11:18:25;;;;;;;;;;;;;;;6.83;100.00;101180.25;5036507;28;20049;-78
2023/03/03 11:21:02;;;;;;;76.95;54.38;;;;;;;7.22;100.00;101171.53;5034903;28;19924;-78
2023/03/03 11:23:51;;;;;;;75.45;55.90;;;;;;;7.25;100.00;101176.47;5035475;28;20137;-78